Time,TemperatureF,DewpointF,PressureIn,WindDirection,WindDirectionDegrees,WindSpeedMPH,WindSpeedGustMPH,Humidity,HourlyPrecipIn,Conditions,Clouds,dailyrainin,SolarRadiationWatts/m^2,SoftwareType,DateUTC
2013-02-21 00:01:00,19.0,17.0,-100.00,North,3,0.0,0.0,93,0.00,,,0.18,4.000000,,2013-02-21 08:01:00,
2013-02-21 00:11:00,19.0,17.0,-100.00,North,3,0.0,0.0,93,0.00,,,0.18,4.000000,,2013-02-21 08:11:00,
2013-02-21 00:42:00,20.0,18.0,-100.00,North,3,0.0,0.0,93,0.00,,,-99.99,4.000000,,2013-02-21 08:42:00,
2013-02-21 00:52:00,20.0,18.0,-100.00,North,3,0.0,0.0,93,0.00,,,-99.99,4.000000,,2013-02-21 08:52:00,
2013-02-21 01:01:00,20.0,18.0,-100.00,North,3,0.0,0.0,93,0.00,,,-99.99,4.000000,,2013-02-21 09:01:00,
2013-02-21 01:11:00,20.0,18.0,-100.00,North,3,0.0,0.0,93,0.00,,,-99.99,4.000000,,2013-02-21 09:11:00,
2013-02-21 01:42:00,21.0,20.0,-100.00,North,3,0.0,0.0,94,0.00,,,0.18,3.000000,,2013-02-21 09:42:00,
2013-02-21 01:52:00,21.0,20.0,-100.00,North,3,0.0,0.0,94,0.00,,,0.18,3.000000,,2013-02-21 09:52:00,
2013-02-21 02:01:00,21.0,20.0,-100.00,North,3,0.0,0.0,94,0.00,,,0.18,3.000000,,2013-02-21 10:01:00,
2013-02-21 02:11:00,21.0,20.0,-100.00,North,3,0.0,0.0,94,0.00,,,0.18,3.000000,,2013-02-21 10:11:00,
2013-02-21 02:31:00,21.0,20.0,-100.00,North,3,1.0,2.0,94,0.00,,,0.18,3.000000,,2013-02-21 10:31:00,
2013-02-21 02:41:00,21.0,20.0,-100.00,North,3,1.0,2.0,94,0.00,,,0.18,3.000000,,2013-02-21 10:41:00,
2013-02-21 02:51:00,21.0,20.0,-100.00,North,3,1.0,2.0,94,0.00,,,0.18,3.000000,,2013-02-21 10:51:00,
2013-02-21 03:01:00,21.0,20.0,-100.00,North,3,1.0,2.0,94,0.00,,,0.18,3.000000,,2013-02-21 11:01:00,
2013-02-21 03:11:00,21.0,20.0,-100.00,North,3,1.0,2.0,94,0.00,,,0.18,3.000000,,2013-02-21 11:11:00,
2013-02-21 03:41:00,21.0,20.0,-100.00,North,3,0.0,2.0,94,0.00,,,0.18,4.000000,,2013-02-21 11:41:00,
2013-02-21 03:51:00,21.0,20.0,-100.00,North,3,0.0,2.0,94,0.00,,,0.18,4.000000,,2013-02-21 11:51:00,
2013-02-21 04:01:00,21.0,20.0,-100.00,North,3,0.0,2.0,94,0.00,,,0.18,4.000000,,2013-02-21 12:01:00,
2013-02-21 04:11:00,21.0,20.0,-100.00,North,3,0.0,2.0,94,0.00,,,0.18,4.000000,,2013-02-21 12:11:00,
2013-02-21 04:43:00,20.0,18.0,-100.00,North,3,0.0,0.0,93,0.00,,,0.18,3.000000,,2013-02-21 12:43:00,
2013-02-21 04:52:00,20.0,18.0,-100.00,North,3,0.0,0.0,93,0.00,,,0.18,3.000000,,2013-02-21 12:52:00,
2013-02-21 05:01:00,20.0,18.0,-100.00,North,3,0.0,0.0,93,0.00,,,0.18,3.000000,,2013-02-21 13:01:00,
2013-02-21 05:12:00,20.0,18.0,-100.00,North,3,0.0,0.0,93,0.00,,,0.18,3.000000,,2013-02-21 13:12:00,
2013-02-21 05:42:00,21.0,20.0,-100.00,North,3,0.0,1.0,94,0.00,,,0.18,3.000000,,2013-02-21 13:42:00,
2013-02-21 05:52:00,21.0,20.0,-100.00,North,3,0.0,1.0,94,0.00,,,0.18,3.000000,,2013-02-21 13:52:00,
2013-02-21 06:02:00,21.0,20.0,-100.00,North,3,0.0,1.0,94,0.00,,,0.18,3.000000,,2013-02-21 14:02:00,
2013-02-21 06:11:00,21.0,20.0,-100.00,North,3,0.0,1.0,94,0.00,,,0.18,3.000000,,2013-02-21 14:11:00,
2013-02-21 06:42:00,21.0,20.0,-100.00,North,3,1.0,2.0,94,0.00,,,0.18,4.000000,,2013-02-21 14:42:00,
2013-02-21 06:52:00,21.0,20.0,-100.00,North,3,1.0,2.0,94,0.00,,,0.18,4.000000,,2013-02-21 14:52:00,
2013-02-21 07:01:00,21.0,20.0,-100.00,North,3,1.0,2.0,94,0.00,,,0.18,4.000000,,2013-02-21 15:01:00,
2013-02-21 07:12:00,21.0,20.0,-100.00,North,3,1.0,2.0,94,0.00,,,0.18,4.000000,,2013-02-21 15:12:00,
2013-02-21 07:32:00,23.0,21.0,-100.00,North,3,0.0,1.0,93,0.00,,,0.18,45.000000,,2013-02-21 15:32:00,
2013-02-21 07:42:00,23.0,21.0,-100.00,North,3,0.0,1.0,93,0.00,,,0.18,45.000000,,2013-02-21 15:42:00,
2013-02-21 07:52:00,23.0,21.0,-100.00,North,3,0.0,1.0,93,0.00,,,0.18,45.000000,,2013-02-21 15:52:00,
2013-02-21 08:01:00,23.0,21.0,-100.00,North,3,0.0,1.0,93,0.00,,,0.18,45.000000,,2013-02-21 16:01:00,
2013-02-21 08:12:00,23.0,21.0,-100.00,North,3,0.0,1.0,93,0.00,,,0.18,45.000000,,2013-02-21 16:12:00,
2013-02-21 08:42:00,24.0,23.0,-100.00,North,3,1.0,2.0,95,0.00,,,0.18,134.000000,,2013-02-21 16:42:00,
2013-02-21 08:52:00,24.0,23.0,-100.00,North,3,1.0,2.0,95,0.00,,,0.18,134.000000,,2013-02-21 16:52:00,
2013-02-21 09:01:00,24.0,23.0,-100.00,North,3,1.0,2.0,95,0.00,,,0.18,134.000000,,2013-02-21 17:01:00,
2013-02-21 09:11:00,24.0,23.0,-100.00,North,3,1.0,2.0,95,0.00,,,0.18,134.000000,,2013-02-21 17:11:00,
2013-02-21 09:42:00,27.0,26.0,-100.00,North,3,1.0,2.0,95,0.00,,,0.18,281.000000,,2013-02-21 17:42:00,
2013-02-21 09:52:00,27.0,26.0,-100.00,North,3,1.0,2.0,95,0.00,,,0.18,281.000000,,2013-02-21 17:52:00,
2013-02-21 10:01:00,27.0,26.0,-100.00,North,3,1.0,2.0,95,0.00,,,0.18,281.000000,,2013-02-21 18:01:00,
2013-02-21 10:11:00,27.0,26.0,-100.00,North,3,1.0,2.0,95,0.00,,,0.18,281.000000,,2013-02-21 18:11:00,
2013-02-21 10:42:00,30.0,28.0,-100.00,North,3,1.0,1.0,94,0.03,,,0.21,543.000000,,2013-02-21 18:42:00,
2013-02-21 10:52:00,30.0,28.0,-100.00,North,3,1.0,1.0,94,0.03,,,0.21,543.000000,,2013-02-21 18:52:00,
2013-02-21 11:01:00,30.0,28.0,-100.00,North,3,1.0,1.0,94,0.03,,,0.21,543.000000,,2013-02-21 19:01:00,
2013-02-21 11:11:00,30.0,28.0,-100.00,North,3,1.0,1.0,94,0.03,,,0.21,543.000000,,2013-02-21 19:11:00,
2013-02-21 11:42:00,28.0,27.0,-100.00,North,2,1.0,2.0,94,0.03,,,0.24,415.000000,,2013-02-21 19:42:00,
2013-02-21 11:52:00,28.0,27.0,-100.00,North,2,1.0,2.0,94,0.03,,,0.24,415.000000,,2013-02-21 19:52:00,
2013-02-21 12:01:00,28.0,27.0,-100.00,North,2,1.0,2.0,94,0.03,,,0.24,415.000000,,2013-02-21 20:01:00,
2013-02-21 12:11:00,28.0,27.0,-100.00,North,2,1.0,2.0,94,0.03,,,0.24,415.000000,,2013-02-21 20:11:00,
2013-02-21 12:42:00,28.0,26.0,-100.00,North,2,1.0,2.0,92,0.04,,,0.28,586.000000,,2013-02-21 20:42:00,
2013-02-21 12:52:00,28.0,26.0,-100.00,North,2,1.0,2.0,92,0.04,,,0.28,586.000000,,2013-02-21 20:52:00,
2013-02-21 13:02:00,28.0,26.0,-100.00,North,2,1.0,2.0,92,0.04,,,0.28,586.000000,,2013-02-21 21:02:00,
2013-02-21 13:11:00,28.0,26.0,-100.00,North,2,1.0,2.0,92,0.04,,,0.28,586.000000,,2013-02-21 21:11:00,
2013-02-21 13:42:00,30.0,27.0,-100.00,North,2,1.0,2.0,90,0.04,,,-99.99,715.000000,,2013-02-21 21:42:00,
2013-02-21 13:52:00,30.0,27.0,-100.00,North,2,1.0,2.0,90,0.04,,,-99.99,715.000000,,2013-02-21 21:52:00,
2013-02-21 14:01:00,30.0,27.0,-100.00,North,2,1.0,2.0,90,0.04,,,-99.99,715.000000,,2013-02-21 22:01:00,
2013-02-21 14:11:00,30.0,27.0,-100.00,North,2,1.0,2.0,90,0.04,,,-99.99,715.000000,,2013-02-21 22:11:00,
2013-02-21 14:42:00,29.0,26.0,-100.00,North,2,1.0,6.0,87,0.04,,,0.36,760.000000,,2013-02-21 22:42:00,
2013-02-21 14:52:00,29.0,26.0,-100.00,North,2,1.0,6.0,87,0.04,,,0.36,760.000000,,2013-02-21 22:52:00,
2013-02-21 15:01:00,29.0,26.0,-100.00,North,2,1.0,6.0,87,0.04,,,0.36,760.000000,,2013-02-21 23:01:00,
2013-02-21 15:11:00,29.0,26.0,-100.00,North,2,1.0,6.0,87,0.04,,,0.36,760.000000,,2013-02-21 23:11:00,
2013-02-21 15:42:00,28.0,21.0,-100.00,North,2,1.0,7.0,75,0.01,,,0.32,706.000000,,2013-02-21 23:42:00,
2013-02-21 15:52:00,28.0,21.0,-100.00,North,2,1.0,7.0,75,0.01,,,0.32,706.000000,,2013-02-21 23:52:00,
2013-02-21 16:01:00,28.0,21.0,-100.00,North,2,1.0,7.0,75,0.01,,,0.32,706.000000,,2013-02-22 00:01:00,
2013-02-21 16:11:00,28.0,21.0,-100.00,North,2,1.0,7.0,75,0.01,,,0.32,706.000000,,2013-02-22 00:11:00,
2013-02-21 16:42:00,28.0,20.0,-100.00,North,2,5.0,7.0,71,0.00,,,0.20,475.000000,,2013-02-22 00:42:00,
2013-02-21 16:52:00,28.0,20.0,-100.00,North,2,5.0,7.0,71,0.00,,,0.20,475.000000,,2013-02-22 00:52:00,
2013-02-21 17:01:00,28.0,20.0,-100.00,North,2,5.0,7.0,71,0.00,,,0.20,475.000000,,2013-02-22 01:01:00,
2013-02-21 17:11:00,28.0,20.0,-100.00,North,2,5.0,7.0,71,0.00,,,0.20,475.000000,,2013-02-22 01:11:00,
2013-02-21 17:42:00,25.0,17.0,-100.00,North,2,6.0,7.0,70,0.00,,,0.19,206.000000,,2013-02-22 01:42:00,
2013-02-21 17:52:00,25.0,17.0,-100.00,North,2,6.0,7.0,70,0.00,,,0.19,206.000000,,2013-02-22 01:52:00,
2013-02-21 18:01:00,25.0,17.0,-100.00,North,2,6.0,7.0,70,0.00,,,0.19,206.000000,,2013-02-22 02:01:00,
2013-02-21 18:11:00,25.0,17.0,-100.00,North,2,6.0,7.0,70,0.00,,,0.19,206.000000,,2013-02-22 02:11:00,
2013-02-21 18:32:00,24.0,15.0,-100.00,North,3,7.0,9.0,67,0.00,,,0.19,11.000000,,2013-02-22 02:32:00,
2013-02-21 18:42:00,24.0,15.0,-100.00,North,3,7.0,9.0,67,0.00,,,0.19,11.000000,,2013-02-22 02:42:00,
2013-02-21 18:52:00,24.0,15.0,-100.00,North,3,7.0,9.0,67,0.00,,,0.19,11.000000,,2013-02-22 02:52:00,
2013-02-21 19:01:00,24.0,15.0,-100.00,North,3,7.0,9.0,67,0.00,,,0.19,11.000000,,2013-02-22 03:01:00,
2013-02-21 19:11:00,24.0,15.0,-100.00,North,3,7.0,9.0,67,0.00,,,0.19,11.000000,,2013-02-22 03:11:00,
2013-02-21 19:32:00,23.0,13.0,-100.00,North,3,6.0,8.0,65,0.00,,,0.19,3.000000,,2013-02-22 03:32:00,
2013-02-21 19:42:00,23.0,13.0,-100.00,North,3,6.0,8.0,65,0.00,,,0.19,3.000000,,2013-02-22 03:42:00,
2013-02-21 19:52:00,23.0,13.0,-100.00,North,3,6.0,8.0,65,0.00,,,0.19,3.000000,,2013-02-22 03:52:00,
2013-02-21 20:01:00,23.0,13.0,-100.00,North,3,6.0,8.0,65,0.00,,,0.19,3.000000,,2013-02-22 04:01:00,
2013-02-21 20:11:00,23.0,13.0,-100.00,North,3,6.0,8.0,65,0.00,,,0.19,3.000000,,2013-02-22 04:11:00,
2013-02-21 20:32:00,23.0,12.0,-100.00,North,3,7.0,9.0,62,0.00,,,0.19,3.000000,,2013-02-22 04:32:00,
2013-02-21 20:42:00,23.0,12.0,-100.00,North,3,7.0,9.0,62,0.00,,,0.19,3.000000,,2013-02-22 04:42:00,
2013-02-21 20:52:00,23.0,12.0,-100.00,North,3,7.0,9.0,62,0.00,,,0.19,3.000000,,2013-02-22 04:52:00,
2013-02-21 21:01:00,23.0,12.0,-100.00,North,3,7.0,9.0,62,0.00,,,0.19,3.000000,,2013-02-22 05:01:00,
2013-02-21 21:11:00,23.0,12.0,-100.00,North,3,7.0,9.0,62,0.00,,,0.19,3.000000,,2013-02-22 05:11:00,
2013-02-21 21:32:00,24.0,11.0,-100.00,North,3,13.0,18.0,56,0.00,,,0.19,3.000000,,2013-02-22 05:32:00,
2013-02-21 21:42:00,24.0,11.0,-100.00,North,3,13.0,18.0,56,0.00,,,0.19,3.000000,,2013-02-22 05:42:00,
2013-02-21 21:52:00,24.0,11.0,-100.00,North,3,13.0,18.0,56,0.00,,,0.19,3.000000,,2013-02-22 05:52:00,
2013-02-21 22:01:00,24.0,11.0,-100.00,North,3,13.0,18.0,56,0.00,,,0.19,3.000000,,2013-02-22 06:01:00,
2013-02-21 22:11:00,24.0,11.0,-100.00,North,3,13.0,18.0,56,0.00,,,0.19,3.000000,,2013-02-22 06:11:00,
2013-02-21 22:32:00,24.0,9.0,-100.00,North,3,13.0,23.0,51,0.00,,,0.19,3.000000,,2013-02-22 06:32:00,
2013-02-21 22:42:00,24.0,9.0,-100.00,North,3,13.0,23.0,51,0.00,,,0.19,3.000000,,2013-02-22 06:42:00,
2013-02-21 22:52:00,24.0,9.0,-100.00,North,3,13.0,23.0,51,0.00,,,0.19,3.000000,,2013-02-22 06:52:00,
2013-02-21 23:01:00,24.0,9.0,-100.00,North,3,13.0,23.0,51,0.00,,,0.19,3.000000,,2013-02-22 07:01:00,
2013-02-21 23:11:00,24.0,9.0,-100.00,North,3,13.0,23.0,51,0.00,,,0.19,3.000000,,2013-02-22 07:11:00,
2013-02-21 23:42:00,23.0,7.0,-100.00,North,3,13.0,18.0,49,0.00,,,0.19,2.000000,,2013-02-22 07:42:00,
2013-02-21 23:52:00,23.0,7.0,-100.00,North,3,13.0,18.0,49,0.00,,,0.19,2.000000,,2013-02-22 07:52:00,